Time;durP1;ratioP1;P1;durP2;ratioP2;P2;SDS_P1;SDS_P2;PMS_P1;PMS_P2;Temp;Humidity;BMP_temperature;BMP_pressure;BME280_temperature;BME280_humidity;BME280_pressure;Samples;Min_cycle;Max_cycle;Signal;HPM_P1;HPM_P2
2023/10/25 00:02:17;;;;;;;2.90;2.60;;;10.00;99.90;;;;;;4912402;28;20265;-73
2023/10/25 00:04:42;;;;;;;3.50;2.97;;;9.90;99.90;;;;;;4911020;28;20222;-72
2023/10/25 00:07:08;;;;;;;3.17;2.90;;;9.90;99.90;;;;;;4930064;28;20265;-73
2023/10/25 00:09:34;;;;;;;3.00;2.47;;;10.00;99.90;;;;;;4928139;28;20222;-73
2023/10/25 00:11:59;;;;;;;3.97;3.30;;;9.90;99.90;;;;;;4924620;28;20238;-72
2023/10/25 00:14:28;;;;;;;4.40;4.00;;;9.80;99.90;;;;;;4929876;28;21285;-71
2023/10/25 00:16:54;;;;;;;3.60;3.30;;;9.90;99.90;;;;;;4928286;28;20223;-73
2023/10/25 00:19:20;;;;;;;3.00;2.77;;;9.90;99.90;;;;;;4928533;28;20493;-73
2023/10/25 00:21:45;;;;;;;2.83;2.60;;;9.90;99.90;;;;;;4941125;28;20230;-73
2023/10/25 00:24:11;;;;;;;4.33;2.50;;;9.90;99.90;;;;;;4912988;28;20226;-73
2023/10/25 00:26:37;;;;;;;3.00;2.40;;;9.90;99.90;;;;;;4912093;28;20236;-74
2023/10/25 00:29:03;;;;;;;3.43;3.13;;;9.90;99.90;;;;;;4927238;28;20253;-73
2023/10/25 00:31:28;;;;;;;5.77;2.53;;;9.80;99.90;;;;;;4928339;28;20261;-73
2023/10/25 00:33:55;;;;;;;6.90;2.80;;;9.70;99.90;;;;;;4942841;28;20814;-73
2023/10/25 00:36:21;;;;;;;3.50;3.20;;;9.60;99.90;;;;;;4913197;28;20242;-73
2023/10/25 00:38:46;;;;;;;4.73;3.20;;;9.70;99.90;;;;;;4911324;28;20644;-73
2023/10/25 00:41:12;;;;;;;4.63;2.77;;;9.80;99.90;;;;;;4924292;28;20261;-72
2023/10/25 00:43:38;;;;;;;3.87;3.47;;;9.80;99.90;;;;;;4929229;28;20246;-73
2023/10/25 00:46:14;;;;;;;2.90;2.60;;;9.80;99.90;;;;;;4940644;28;20273;-72
2023/10/25 00:48:46;;;;;;;3.40;2.60;;;9.80;99.90;;;;;;4933056;28;20228;-73
2023/10/25 00:51:14;;;;;;;4.97;3.30;;;9.80;99.90;;;;;;4913736;28;20481;-73
2023/10/25 00:53:45;;;;;;;7.70;4.27;;;9.60;99.90;;;;;;4913413;28;20473;-73
2023/10/25 00:56:12;;;;;;;4.60;3.63;;;9.70;99.90;;;;;;4926609;28;20641;-73
2023/10/25 00:58:43;;;;;;;4.87;3.30;;;9.70;99.90;;;;;;4940766;28;20501;-73
2023/10/25 01:01:09;;;;;;;3.50;3.20;;;9.70;99.90;;;;;;4927345;28;21236;-72
2023/10/25 01:03:35;;;;;;;3.90;3.00;;;9.70;99.90;;;;;;4943055;28;20484;-76
2023/10/25 01:06:04;;;;;;;5.23;3.20;;;9.80;99.90;;;;;;4946576;28;20491;-76
2023/10/25 01:08:31;;;;;;;3.57;2.60;;;9.70;99.90;;;;;;4930080;28;20591;-76
2023/10/25 01:10:57;;;;;;;3.40;2.80;;;9.80;99.90;;;;;;4923955;28;20461;-76
2023/10/25 01:13:23;;;;;;;3.57;2.93;;;9.70;99.90;;;;;;4937794;28;20499;-75
2023/10/25 01:15:49;;;;;;;4.10;3.03;;;9.70;99.90;;;;;;4931855;28;20533;-75
2023/10/25 01:18:15;;;;;;;2.30;2.10;;;9.70;99.90;;;;;;4927627;28;20341;-76
2023/10/25 01:20:42;;;;;;;3.10;2.80;;;9.70;99.90;;;;;;4933439;28;20233;-75
2023/10/25 01:23:08;;;;;;;3.10;2.80;;;9.70;99.90;;;;;;4933626;28;21222;-75
2023/10/25 01:25:34;;;;;;;3.40;3.10;;;9.80;99.90;;;;;;4931158;28;20475;-76
2023/10/25 01:28:00;;;;;;;3.87;3.30;;;9.70;99.90;;;;;;4923051;28;20225;-75
2023/10/25 01:30:26;;;;;;;3.97;3.40;;;9.70;99.90;;;;;;4931056;28;20577;-75
2023/10/25 01:32:55;;;;;;;3.13;2.53;;;9.70;99.90;;;;;;4923287;28;20615;-75
2023/10/25 01:35:22;;;;;;;3.60;2.47;;;9.70;99.90;;;;;;4936368;28;20477;-75
2023/10/25 01:37:48;;;;;;;4.93;3.20;;;9.70;99.90;;;;;;4919515;28;20475;-75
2023/10/25 01:40:15;;;;;;;3.03;2.73;;;9.70;99.90;;;;;;4938445;28;20226;-75
2023/10/25 01:42:41;;;;;;;5.23;2.90;;;9.70;99.90;;;;;;4927410;28;20480;-75
2023/10/25 01:45:07;;;;;;;4.57;2.83;;;9.70;99.90;;;;;;4911618;28;20473;-75
2023/10/25 01:47:35;;;;;;;3.00;2.47;;;9.70;99.90;;;;;;4911568;28;20322;-75
2023/10/25 01:50:01;;;;;;;3.80;3.27;;;9.70;99.90;;;;;;4910065;28;20481;-74
2023/10/25 01:52:26;;;;;;;3.20;2.80;;;9.70;99.90;;;;;;4911982;28;20223;-76
2023/10/25 01:54:52;;;;;;;3.50;2.97;;;9.70;99.90;;;;;;4909306;28;20341;-75
2023/10/25 01:57:18;;;;;;;6.20;3.80;;;9.60;99.90;;;;;;4912880;28;20256;-74
2023/10/25 01:59:44;;;;;;;4.70;3.57;;;9.60;99.90;;;;;;4928252;28;20816;-74
2023/10/25 02:02:11;;;;;;;4.20;3.67;;;9.60;99.90;;;;;;4921923;28;20470;-74
2023/10/25 02:04:36;;;;;;;6.27;3.90;;;9.60;99.90;;;;;;4926176;28;21184;-75
2023/10/25 02:07:02;;;;;;;5.70;4.07;;;9.60;99.90;;;;;;4945102;28;20465;-75
2023/10/25 02:09:29;;;;;;;5.47;3.40;;;9.60;99.90;;;;;;4931314;28;20860;-74
2023/10/25 02:11:54;;;;;;;4.10;3.63;;;9.60;99.90;;;;;;4917139;28;20234;-75
2023/10/25 02:14:21;;;;;;;6.00;3.73;;;9.60;99.90;;;;;;4912982;28;20579;-75
2023/10/25 02:16:46;;;;;;;5.33;4.00;;;9.60;99.90;;;;;;4893996;28;20353;-75
2023/10/25 02:19:12;;;;;;;4.83;3.70;;;9.60;99.90;;;;;;4911895;28;20490;-75
2023/10/25 02:21:38;;;;;;;5.07;4.27;;;9.60;99.90;;;;;;4927345;28;20253;-75
2023/10/25 02:24:05;;;;;;;7.27;3.70;;;9.60;99.90;;;;;;4892944;28;20226;-74
2023/10/25 02:26:30;;;;;;;7.13;3.50;;;9.60;99.90;;;;;;4912210;28;20328;-75
2023/10/25 02:28:56;;;;;;;5.13;3.83;;;9.60;99.90;;;;;;4936449;28;20474;-76
2023/10/25 02:31:22;;;;;;;6.70;3.87;;;9.50;99.90;;;;;;4911774;28;20770;-75
2023/10/25 02:33:48;;;;;;;7.07;3.77;;;9.50;99.90;;;;;;4909134;28;20601;-76
2023/10/25 02:36:14;;;;;;;7.13;3.73;;;9.60;99.90;;;;;;4912241;28;20908;-75
2023/10/25 02:38:41;;;;;;;7.70;4.20;;;9.60;99.90;;;;;;4912576;28;20230;-75
2023/10/25 02:41:08;;;;;;;5.83;4.20;;;9.50;99.90;;;;;;4910982;28;20508;-75
2023/10/25 02:43:34;;;;;;;5.57;3.80;;;9.50;99.90;;;;;;4911412;28;20474;-76
2023/10/25 02:46:02;;;;;;;5.20;3.73;;;9.50;99.90;;;;;;4940379;28;20226;-75
2023/10/25 02:48:28;;;;;;;5.50;4.47;;;9.50;99.90;;;;;;4944690;28;20469;-76
2023/10/25 02:50:54;;;;;;;5.53;4.30;;;9.50;99.90;;;;;;4924278;28;20481;-75
2023/10/25 02:53:19;;;;;;;5.27;3.80;;;9.50;99.90;;;;;;4934085;28;20477;-76
2023/10/25 02:55:47;;;;;;;6.47;4.20;;;9.50;99.90;;;;;;4944062;28;20230;-75
2023/10/25 02:58:13;;;;;;;6.03;3.80;;;9.50;99.90;;;;;;4950235;28;20232;-75
2023/10/25 03:00:39;;;;;;;5.67;4.27;;;9.50;99.90;;;;;;4940585;28;20472;-75
2023/10/25 03:03:05;;;;;;;5.63;4.33;;;9.50;99.90;;;;;;4927997;28;20631;-75
2023/10/25 03:05:31;;;;;;;5.67;4.13;;;9.50;99.90;;;;;;4924171;28;20886;-76
2023/10/25 03:07:57;;;;;;;5.57;4.37;;;9.40;99.90;;;;;;4927271;28;20923;-75
2023/10/25 03:10:22;;;;;;;4.97;3.57;;;9.30;99.90;;;;;;4912465;28;20512;-75
2023/10/25 03:12:48;;;;;;;4.13;3.73;;;9.30;99.90;;;;;;4921156;28;20225;-76
2023/10/25 03:15:14;;;;;;;6.70;4.57;;;9.40;99.90;;;;;;4922932;28;20472;-75
2023/10/25 03:17:40;;;;;;;4.07;3.67;;;9.40;99.90;;;;;;4950726;28;20336;-75
2023/10/25 03:20:06;;;;;;;5.07;3.73;;;9.40;99.90;;;;;;4921888;28;20222;-76
2023/10/25 03:22:32;;;;;;;3.43;3.10;;;9.50;99.90;;;;;;4925767;28;20341;-75
2023/10/25 03:24:58;;;;;;;6.53;4.87;;;9.50;99.90;;;;;;4926134;28;20464;-75
2023/10/25 03:27:24;;;;;;;4.50;3.67;;;9.50;99.90;;;;;;4917528;28;20920;-75
2023/10/25 03:29:50;;;;;;;5.40;3.73;;;9.50;99.90;;;;;;4916535;28;20229;-75
2023/10/25 03:32:15;;;;;;;6.30;4.50;;;9.50;99.90;;;;;;4925290;28;20245;-75
2023/10/25 03:34:42;;;;;;;7.10;4.20;;;9.50;99.90;;;;;;4927262;28;20444;-75
2023/10/25 03:37:07;;;;;;;5.83;3.93;;;9.50;99.90;;;;;;4921844;28;20344;-75
2023/10/25 03:39:34;;;;;;;4.30;3.90;;;9.50;99.90;;;;;;4934037;28;20460;-75
2023/10/25 03:42:00;;;;;;;4.27;3.40;;;9.50;99.90;;;;;;4918135;28;20226;-75
2023/10/25 03:44:26;;;;;;;6.23;3.87;;;9.60;99.90;;;;;;4923396;28;20464;-75
2023/10/25 03:46:54;;;;;;;3.87;3.20;;;9.50;99.90;;;;;;4934400;28;20222;-75
2023/10/25 03:49:20;;;;;;;5.53;4.57;;;9.50;99.90;;;;;;4941189;28;20472;-75
2023/10/25 03:51:46;;;;;;;4.50;3.60;;;9.50;99.90;;;;;;4913756;28;20556;-75
2023/10/25 03:54:11;;;;;;;5.70;3.90;;;9.50;99.90;;;;;;4933760;28;20225;-75
2023/10/25 03:56:37;;;;;;;3.93;3.53;;;9.50;99.90;;;;;;4914205;28;20386;-74
2023/10/25 03:59:03;;;;;;;4.27;3.27;;;9.40;99.90;;;;;;4941930;28;20232;-75
2023/10/25 04:01:28;;;;;;;3.70;3.33;;;9.40;99.90;;;;;;4932465;28;20649;-75
2023/10/25 04:03:54;;;;;;;3.60;2.80;;;9.40;99.90;;;;;;4941562;28;20229;-75
2023/10/25 04:06:20;;;;;;;4.57;3.50;;;9.40;99.90;;;;;;4950524;28;20288;-76
2023/10/25 04:08:45;;;;;;;4.60;3.50;;;9.40;99.90;;;;;;4931230;28;20225;-75
2023/10/25 04:11:11;;;;;;;5.20;4.10;;;9.40;99.90;;;;;;4938699;28;20237;-75
2023/10/25 04:13:37;;;;;;;5.03;3.50;;;9.50;99.90;;;;;;4927401;28;20218;-75
2023/10/25 04:16:05;;;;;;;4.30;3.70;;;9.50;99.90;;;;;;4943989;28;20292;-75
2023/10/25 04:18:32;;;;;;;4.47;3.70;;;9.50;99.90;;;;;;4932388;28;20345;-75
2023/10/25 04:21:00;;;;;;;5.13;3.70;;;9.50;99.90;;;;;;4926432;28;20678;-75
2023/10/25 04:23:27;;;;;;;3.80;3.40;;;9.50;99.90;;;;;;4933817;28;20473;-74
2023/10/25 04:26:06;;;;;;;4.57;3.70;;;9.50;99.90;;;;;;4928812;28;20474;-75
2023/10/25 04:28:31;;;;;;;5.17;4.33;;;9.40;99.90;;;;;;4924429;28;20469;-75
2023/10/25 04:30:57;;;;;;;4.47;3.20;;;9.40;99.90;;;;;;4927089;28;20488;-75
2023/10/25 04:33:23;;;;;;;4.33;3.37;;;9.40;99.90;;;;;;4928502;28;20245;-75
2023/10/25 04:35:49;;;;;;;5.17;3.87;;;9.40;99.90;;;;;;4924355;28;20917;-75
2023/10/25 04:38:14;;;;;;;8.60;5.30;;;9.40;99.90;;;;;;4927139;28;20254;-75
2023/10/25 04:40:40;;;;;;;5.97;4.73;;;9.40;99.90;;;;;;4927610;28;20220;-75
2023/10/25 04:43:06;;;;;;;3.80;3.20;;;9.40;99.90;;;;;;4924875;28;20309;-75
2023/10/25 04:45:34;;;;;;;5.20;3.77;;;9.40;99.90;;;;;;4927402;28;20268;-75
2023/10/25 04:48:00;;;;;;;5.00;3.90;;;9.40;99.90;;;;;;4928901;28;20261;-75
2023/10/25 04:50:26;;;;;;;4.70;3.67;;;9.40;99.90;;;;;;4948745;28;20948;-74
2023/10/25 04:52:52;;;;;;;4.20;3.20;;;9.40;99.90;;;;;;4932882;28;20352;-75
2023/10/25 04:55:18;;;;;;;4.67;3.30;;;9.40;99.90;;;;;;4918605;28;20253;-75
2023/10/25 04:57:44;;;;;;;4.53;3.50;;;9.40;99.90;;;;;;4917862;28;20317;-75
2023/10/25 05:00:10;;;;;;;3.13;2.83;;;9.30;99.90;;;;;;4912606;28;20481;-75
2023/10/25 05:02:38;;;;;;;3.50;3.20;;;9.30;99.90;;;;;;4926725;28;20211;-75
2023/10/25 05:05:06;;;;;;;3.80;3.47;;;9.30;99.90;;;;;;4909616;28;20906;-75
2023/10/25 05:07:32;;;;;;;4.27;3.13;;;9.40;99.90;;;;;;4911798;28;20482;-75
2023/10/25 05:09:58;;;;;;;3.53;3.13;;;9.30;99.90;;;;;;4940667;28;21007;-75
2023/10/25 05:12:44;;;;;;;4.83;3.93;;;9.30;99.90;;;;;;4926088;28;20624;-75
2023/10/25 05:15:11;;;;;;;4.33;3.50;;;9.30;99.90;;;;;;4910143;28;20551;-76
2023/10/25 05:17:38;;;;;;;3.20;2.87;;;9.20;99.90;;;;;;4912727;28;20513;-75
2023/10/25 05:20:05;;;;;;;3.40;3.07;;;9.20;99.90;;;;;;4909985;28;20544;-75
2023/10/25 05:22:34;;;;;;;3.80;3.07;;;9.30;99.90;;;;;;4927206;28;20481;-75
2023/10/25 05:25:01;;;;;;;3.73;3.20;;;9.30;99.90;;;;;;4894407;28;20485;-76
2023/10/25 05:27:27;;;;;;;5.53;4.10;;;9.20;99.90;;;;;;4911011;28;20596;-75
2023/10/25 05:29:53;;;;;;;3.10;2.80;;;9.20;99.90;;;;;;4920758;28;20586;-75
2023/10/25 05:32:20;;;;;;;4.03;2.93;;;9.20;99.90;;;;;;4934846;28;20244;-75
2023/10/25 05:34:48;;;;;;;4.70;3.03;;;9.20;99.90;;;;;;4972837;28;20940;-74
2023/10/25 05:37:15;;;;;;;4.63;3.67;;;9.30;99.90;;;;;;4964484;28;20488;-75
2023/10/25 05:39:41;;;;;;;3.80;3.23;;;9.20;99.90;;;;;;4985539;28;20468;-74
2023/10/25 05:42:08;;;;;;;4.73;3.20;;;9.20;99.90;;;;;;4973127;28;20468;-75
2023/10/25 05:44:34;;;;;;;4.10;3.57;;;9.20;99.90;;;;;;4977516;28;20648;-73
2023/10/25 05:47:00;;;;;;;3.67;3.20;;;9.20;99.90;;;;;;4973643;28;21296;-75
2023/10/25 05:49:26;;;;;;;3.43;3.13;;;9.20;99.90;;;;;;4948148;28;20563;-75
2023/10/25 05:51:51;;;;;;;5.93;4.50;;;9.20;99.90;;;;;;4954137;28;20363;-75
2023/10/25 05:54:17;;;;;;;4.93;3.70;;;9.10;99.90;;;;;;4958921;28;20797;-75
2023/10/25 05:56:43;;;;;;;3.73;3.37;;;9.10;99.90;;;;;;4969437;28;20507;-75
2023/10/25 05:59:10;;;;;;;4.50;3.43;;;9.20;99.90;;;;;;4979774;28;20233;-75
2023/10/25 06:01:47;;;;;;;4.37;3.40;;;9.10;99.90;;;;;;4969313;28;20499;-75
2023/10/25 06:04:14;;;;;;;3.43;2.97;;;9.20;99.90;;;;;;4978245;28;20533;-74
2023/10/25 06:06:44;;;;;;;4.53;3.40;;;9.10;99.90;;;;;;4980006;28;20659;-75
2023/10/25 06:09:12;;;;;;;3.70;3.10;;;9.10;99.90;;;;;;4920760;28;20488;-76
2023/10/25 06:11:39;;;;;;;4.10;3.10;;;9.10;99.90;;;;;;4908998;28;20490;-73
2023/10/25 06:14:08;;;;;;;2.97;2.30;;;9.10;99.90;;;;;;4927443;28;20473;-73
2023/10/25 06:16:34;;;;;;;3.60;2.97;;;9.10;99.90;;;;;;4940305;28;20488;-73
2023/10/25 06:19:01;;;;;;;5.60;5.00;;;9.10;99.90;;;;;;4940968;28;20483;-73
2023/10/25 06:21:27;;;;;;;6.50;4.60;;;9.10;99.90;;;;;;4944952;28;20606;-72
2023/10/25 06:23:53;;;;;;;3.90;3.50;;;9.10;99.90;;;;;;4940423;28;20604;-73
2023/10/25 06:26:19;;;;;;;5.23;3.97;;;9.10;99.90;;;;;;4927005;28;20270;-73
2023/10/25 06:28:45;;;;;;;6.23;4.70;;;9.10;99.90;;;;;;4907606;28;20470;-72
2023/10/25 06:31:11;;;;;;;4.90;3.93;;;9.10;99.90;;;;;;4911486;28;20548;-72
2023/10/25 06:33:37;;;;;;;3.20;2.90;;;9.10;99.90;;;;;;4942757;28;20532;-72
2023/10/25 06:36:04;;;;;;;3.83;3.20;;;9.20;99.90;;;;;;4906891;28;20553;-73
2023/10/25 06:38:30;;;;;;;4.40;2.53;;;9.10;99.90;;;;;;4927978;28;20235;-72
2023/10/25 06:40:56;;;;;;;3.87;3.03;;;9.20;99.90;;;;;;4909011;28;20564;-72
2023/10/25 06:43:23;;;;;;;4.13;3.00;;;9.10;99.90;;;;;;4911855;28;20865;-73
2023/10/25 06:45:49;;;;;;;3.40;2.93;;;9.20;99.90;;;;;;4906349;28;20510;-72
2023/10/25 06:48:15;;;;;;;6.67;3.83;;;9.20;99.90;;;;;;4942336;28;20470;-73
2023/10/25 06:50:45;;;;;;;5.20;3.67;;;9.20;99.90;;;;;;4927471;28;20230;-72
2023/10/25 06:53:11;;;;;;;7.73;4.40;;;9.20;99.90;;;;;;4918824;28;20492;-73
2023/10/25 06:55:37;;;;;;;5.33;4.10;;;9.20;99.90;;;;;;4935776;28;20471;-72
2023/10/25 06:58:04;;;;;;;6.60;4.30;;;9.20;99.90;;;;;;4928065;28;21164;-73
2023/10/25 07:00:29;;;;;;;4.67;3.67;;;9.20;99.90;;;;;;4940933;28;20229;-72
2023/10/25 07:03:01;;;;;;;5.43;3.63;;;9.20;99.90;;;;;;4942822;28;20465;-73
2023/10/25 07:05:28;;;;;;;4.50;3.63;;;9.20;99.90;;;;;;4928172;28;20241;-72
2023/10/25 07:07:55;;;;;;;6.30;4.17;;;9.20;99.90;;;;;;4917923;28;20469;-73
2023/10/25 07:10:22;;;;;;;5.33;3.67;;;9.20;99.90;;;;;;4910114;28;20509;-73
2023/10/25 07:12:48;;;;;;;4.83;3.87;;;9.30;99.90;;;;;;4911594;28;20533;-72
2023/10/25 07:15:14;;;;;;;4.43;3.90;;;9.30;99.90;;;;;;4929894;28;20468;-73
2023/10/25 07:17:39;;;;;;;6.13;3.90;;;9.30;99.90;;;;;;4925280;28;20472;-72
2023/10/25 07:20:06;;;;;;;4.73;3.73;;;9.30;99.90;;;;;;4917699;28;20309;-72
2023/10/25 07:22:32;;;;;;;4.50;3.73;;;9.30;99.90;;;;;;4936355;28;20217;-72
2023/10/25 07:24:58;;;;;;;5.47;4.70;;;9.30;99.90;;;;;;4914255;28;20564;-72
2023/10/25 07:27:24;;;;;;;9.83;7.03;;;9.30;99.90;;;;;;4913094;28;20462;-72
2023/10/25 07:29:50;;;;;;;10.03;7.20;;;9.30;99.90;;;;;;4909735;28;20230;-72
2023/10/25 07:32:16;;;;;;;18.03;10.53;;;9.30;99.90;;;;;;4915925;28;20237;-72
2023/10/25 07:34:42;;;;;;;16.27;8.90;;;9.30;99.90;;;;;;4900397;28;20481;-72
2023/10/25 07:37:08;;;;;;;13.40;8.60;;;9.30;99.90;;;;;;4925775;28;20234;-73
2023/10/25 07:39:34;;;;;;;11.43;7.63;;;9.30;99.90;;;;;;4912526;28;20509;-72
2023/10/25 07:42:01;;;;;;;13.30;7.10;;;9.30;99.90;;;;;;4912467;28;20478;-72
2023/10/25 07:44:28;;;;;;;8.03;5.63;;;9.30;99.90;;;;;;4931266;28;20230;-73
2023/10/25 07:46:53;;;;;;;8.60;5.10;;;9.40;99.90;;;;;;4927763;28;20473;-72
2023/10/25 07:49:19;;;;;;;10.53;5.23;;;9.40;99.90;;;;;;4914176;28;20931;-72
2023/10/25 07:51:45;;;;;;;11.77;5.90;;;9.40;99.90;;;;;;4911044;28;20317;-73
2023/10/25 07:54:10;;;;;;;11.60;6.00;;;9.40;99.90;;;;;;4914378;28;20237;-73
2023/10/25 07:56:36;;;;;;;10.57;5.80;;;9.50;99.90;;;;;;4912427;28;20265;-73
2023/10/25 07:59:02;;;;;;;9.30;5.77;;;9.40;99.90;;;;;;4928779;28;20259;-73
2023/10/25 08:01:28;;;;;;;7.17;5.43;;;9.40;99.90;;;;;;4930321;28;20241;-73
2023/10/25 08:03:54;;;;;;;7.37;5.23;;;9.50;99.90;;;;;;4909464;28;20218;-73
2023/10/25 08:06:20;;;;;;;8.50;5.77;;;9.40;99.90;;;;;;4934812;28;20268;-73
2023/10/25 08:08:48;;;;;;;9.73;6.03;;;9.50;99.90;;;;;;4965951;28;20535;-73
2023/10/25 08:11:14;;;;;;;7.13;5.33;;;9.50;99.90;;;;;;4967466;28;20469;-73
2023/10/25 08:13:42;;;;;;;10.40;5.67;;;9.50;99.90;;;;;;4973449;28;20541;-72
2023/10/25 08:16:08;;;;;;;9.33;5.60;;;9.60;99.90;;;;;;4950025;28;20241;-72
2023/10/25 08:18:35;;;;;;;7.50;5.60;;;9.60;99.90;;;;;;4965988;28;20567;-72
2023/10/25 08:21:01;;;;;;;8.00;5.80;;;9.60;99.90;;;;;;4965500;28;20570;-72
2023/10/25 08:23:28;;;;;;;13.33;6.90;;;9.60;99.90;;;;;;4965869;28;20484;-72
2023/10/25 08:25:54;;;;;;;14.47;8.43;;;9.60;99.90;;;;;;4967858;28;20629;-72
2023/10/25 08:28:20;;;;;;;22.10;10.73;;;9.70;99.90;;;;;;4954579;28;20936;-71
2023/10/25 08:30:46;;;;;;;11.40;7.80;;;9.60;99.90;;;;;;4967749;28;20245;-72
2023/10/25 08:33:12;;;;;;;13.27;7.47;;;9.70;99.90;;;;;;4964281;28;20580;-72
2023/10/25 08:35:38;;;;;;;20.67;10.90;;;9.70;99.90;;;;;;4962136;28;20480;-72
2023/10/25 08:38:05;;;;;;;20.20;11.97;;;9.70;99.90;;;;;;4970454;28;20286;-71
2023/10/25 08:40:33;;;;;;;26.30;15.00;;;9.70;99.90;;;;;;4958462;28;20223;-72
2023/10/25 08:43:00;;;;;;;21.57;14.40;;;9.80;99.90;;;;;;4992359;28;20468;-72
2023/10/25 08:45:26;;;;;;;31.90;17.53;;;9.80;99.90;;;;;;4983478;28;20472;-72
2023/10/25 08:47:53;;;;;;;33.13;16.60;;;9.80;99.90;;;;;;4982117;28;20471;-72
2023/10/25 08:50:21;;;;;;;28.73;16.30;;;9.80;99.90;;;;;;4985732;28;20460;-72
2023/10/25 08:52:51;;;;;;;33.63;18.37;;;9.80;99.90;;;;;;4984628;28;20456;-72
2023/10/25 08:55:20;;;;;;;34.63;16.73;;;9.80;99.90;;;;;;4983654;28;20456;-73
2023/10/25 08:57:45;;;;;;;29.03;15.20;;;9.90;99.90;;;;;;4968067;28;20517;-72
2023/10/25 09:00:15;;;;;;;30.03;13.90;;;9.90;99.90;;;;;;4968996;28;20460;-72
2023/10/25 09:02:41;;;;;;;22.37;12.07;;;9.90;99.90;;;;;;4992827;28;20221;-73
2023/10/25 09:05:07;;;;;;;22.03;10.50;;;9.90;99.90;;;;;;4984946;28;20492;-71
2023/10/25 09:07:35;;;;;;;22.63;11.33;;;10.00;99.90;;;;;;4971700;28;20475;-71
2023/10/25 09:10:03;;;;;;;26.70;13.37;;;10.00;99.90;;;;;;4951125;28;20464;-72
2023/10/25 09:12:29;;;;;;;22.57;10.90;;;10.00;99.90;;;;;;4939278;28;20496;-72
2023/10/25 09:14:55;;;;;;;19.80;10.60;;;10.10;99.90;;;;;;4949948;28;20472;-72
2023/10/25 09:17:21;;;;;;;18.97;11.27;;;10.10;99.90;;;;;;4938087;28;20724;-72
2023/10/25 09:19:50;;;;;;;25.00;10.70;;;10.10;99.90;;;;;;4951490;28;20943;-72
2023/10/25 09:22:25;;;;;;;25.03;11.60;;;10.10;99.90;;;;;;4933178;28;20252;-72
2023/10/25 09:24:54;;;;;;;21.50;10.83;;;10.10;99.90;;;;;;4933594;28;20486;-72
2023/10/25 09:27:21;;;;;;;22.57;10.73;;;10.20;99.90;;;;;;4937017;28;20562;-72
2023/10/25 09:29:47;;;;;;;23.47;12.43;;;10.20;99.90;;;;;;4947866;28;20578;-73
2023/10/25 09:32:13;;;;;;;20.40;11.13;;;10.20;99.90;;;;;;4950182;28;20498;-73
2023/10/25 09:34:39;;;;;;;17.43;10.67;;;10.20;99.90;;;;;;4949529;28;20236;-73
2023/10/25 09:37:06;;;;;;;20.33;11.47;;;10.20;99.90;;;;;;4932880;28;20239;-72
2023/10/25 09:39:35;;;;;;;20.83;11.67;;;10.30;99.90;;;;;;4937820;28;21202;-73
2023/10/25 09:42:04;;;;;;;19.83;10.83;;;10.30;99.90;;;;;;4948976;28;20483;-72
2023/10/25 09:44:35;;;;;;;23.90;11.50;;;10.30;99.90;;;;;;4938034;28;20464;-72
2023/10/25 09:47:07;;;;;;;19.63;10.63;;;10.30;99.90;;;;;;4947806;28;20484;-75
2023/10/25 09:49:36;;;;;;;19.50;11.27;;;10.30;99.90;;;;;;4934810;28;20471;-75
2023/10/25 09:52:20;;;;;;;14.17;9.90;;;10.30;99.90;;;;;;4947167;28;20503;-75
2023/10/25 09:54:57;;;;;;;21.00;10.47;;;10.40;99.90;;;;;;4950481;28;20577;-75
2023/10/25 09:57:28;;;;;;;14.83;9.20;;;10.40;99.90;;;;;;4935723;28;20591;-75
2023/10/25 09:59:56;;;;;;;17.10;9.70;;;10.40;99.90;;;;;;4949419;28;20588;-75
2023/10/25 10:02:52;;;;;;;19.37;10.40;;;10.40;99.90;;;;;;4932383;28;20573;-75
2023/10/25 10:05:34;;;;;;;15.80;10.03;;;10.40;99.90;;;;;;4933054;28;20492;-75
2023/10/25 10:08:11;;;;;;;14.73;8.97;;;10.40;99.90;;;;;;4946350;28;20643;-75
2023/10/25 10:10:52;;;;;;;15.07;9.13;;;10.40;99.90;;;;;;4933142;28;20476;-75
2023/10/25 10:13:20;;;;;;;16.23;8.90;;;10.50;99.90;;;;;;4949095;28;20452;-75
2023/10/25 10:16:02;;;;;;;13.90;9.67;;;10.50;99.90;;;;;;4950682;28;21129;-75
2023/10/25 10:18:35;;;;;;;14.07;9.70;;;10.50;99.90;;;;;;4931676;28;20460;-75
2023/10/25 10:21:02;;;;;;;16.77;10.60;;;10.50;99.90;;;;;;4928722;28;20523;-75
2023/10/25 10:23:35;;;;;;;15.80;9.87;;;10.50;99.90;;;;;;4938863;28;20473;-75
2023/10/25 10:26:02;;;;;;;15.13;9.70;;;10.50;99.90;;;;;;4930459;28;20620;-75
2023/10/25 10:28:42;;;;;;;20.13;10.00;;;10.60;99.90;;;;;;4929774;28;21084;-75
2023/10/25 10:31:09;;;;;;;12.23;9.67;;;10.60;99.90;;;;;;4929293;28;20640;-75
2023/10/25 10:33:47;;;;;;;17.90;9.77;;;10.60;99.90;;;;;;4942593;28;20484;-75
2023/10/25 10:36:30;;;;;;;11.00;7.40;;;10.60;99.90;;;;;;4938519;28;20483;-75
2023/10/25 10:39:16;;;;;;;11.23;7.53;;;10.60;99.90;;;;;;4948872;28;20557;-74
2023/10/25 10:41:43;;;;;;;10.63;7.60;;;10.70;99.90;;;;;;4932343;28;20511;-73
2023/10/25 10:44:11;;;;;;;10.07;7.37;;;10.70;99.90;;;;;;4928775;28;20467;-74
2023/10/25 10:46:51;;;;;;;10.90;7.63;;;10.70;99.90;;;;;;4932979;28;20480;-73
2023/10/25 10:49:20;;;;;;;8.87;6.23;;;10.70;99.90;;;;;;4913547;28;20477;-73
2023/10/25 10:51:48;;;;;;;12.10;6.73;;;10.70;99.90;;;;;;4969798;28;20504;-73
2023/10/25 10:54:13;;;;;;;8.77;6.63;;;10.70;99.90;;;;;;4992994;28;20970;-73
2023/10/25 10:56:39;;;;;;;8.23;5.80;;;10.70;99.90;;;;;;4981647;28;20487;-72
2023/10/25 10:59:06;;;;;;;7.20;5.53;;;10.80;99.90;;;;;;4967208;28;20226;-72
2023/10/25 11:01:32;;;;;;;5.07;4.50;;;10.80;99.90;;;;;;4966998;28;20218;-72
2023/10/25 11:03:58;;;;;;;7.50;4.40;;;10.80;99.90;;;;;;4958693;28;20551;-73
2023/10/25 11:06:27;;;;;;;5.80;4.50;;;10.80;99.90;;;;;;4960992;28;20497;-75
2023/10/25 11:08:53;;;;;;;6.33;4.07;;;10.80;99.90;;;;;;4938325;28;20468;-75
2023/10/25 11:11:22;;;;;;;4.93;4.27;;;10.80;99.90;;;;;;4929905;28;20516;-75
2023/10/25 11:13:49;;;;;;;4.83;4.07;;;10.80;99.90;;;;;;4928955;28;20233;-75
2023/10/25 11:16:16;;;;;;;8.43;5.17;;;10.80;99.90;;;;;;4932488;28;20573;-75
2023/10/25 11:18:42;;;;;;;5.90;4.10;;;10.80;99.90;;;;;;4926958;28;20478;-75
2023/10/25 11:21:07;;;;;;;6.40;4.40;;;10.90;99.90;;;;;;4952820;28;20479;-75
2023/10/25 11:23:33;;;;;;;5.33;4.70;;;10.90;99.90;;;;;;4935642;28;20483;-76
2023/10/25 11:25:59;;;;;;;6.20;5.10;;;10.90;99.90;;;;;;4947928;28;20225;-76
2023/10/25 11:28:26;;;;;;;5.43;4.90;;;10.90;99.90;;;;;;4952254;28;20225;-75
2023/10/25 11:30:52;;;;;;;4.43;3.93;;;10.90;99.90;;;;;;4934286;28;20311;-76
2023/10/25 11:33:18;;;;;;;7.70;4.67;;;10.90;99.90;;;;;;4950545;28;20568;-75
2023/10/25 11:35:45;;;;;;;5.50;4.27;;;10.90;99.90;;;;;;4951924;28;20683;-73
2023/10/25 11:38:11;;;;;;;4.40;3.97;;;10.90;99.90;;;;;;4933291;28;20475;-73
2023/10/25 11:40:47;;;;;;;6.00;4.43;;;11.00;99.90;;;;;;4935447;28;20713;-73
2023/10/25 11:43:13;;;;;;;7.60;4.30;;;11.00;99.90;;;;;;4949816;28;20473;-72
2023/10/25 11:45:41;;;;;;;5.77;3.90;;;11.00;99.90;;;;;;4918824;28;20488;-73
2023/10/25 11:48:08;;;;;;;4.40;4.00;;;11.00;99.90;;;;;;4917472;28;20458;-73
2023/10/25 11:50:35;;;;;;;5.30;4.13;;;11.00;99.90;;;;;;4917436;28;20596;-73
2023/10/25 11:53:01;;;;;;;4.63;4.17;;;11.00;99.90;;;;;;4930492;28;20577;-73
2023/10/25 11:55:27;;;;;;;6.33;4.77;;;11.00;99.90;;;;;;4926614;28;20860;-72
2023/10/25 11:57:54;;;;;;;5.83;4.07;;;11.00;99.90;;;;;;4928184;28;20591;-74
2023/10/25 12:00:20;;;;;;;4.17;3.80;;;11.10;99.90;;;;;;4931781;28;20475;-73
2023/10/25 12:02:46;;;;;;;5.03;4.53;;;11.10;99.90;;;;;;4930141;28;20466;-73
2023/10/25 12:05:12;;;;;;;4.97;3.80;;;11.10;99.90;;;;;;4938002;28;20249;-72
2023/10/25 12:07:38;;;;;;;5.30;4.77;;;11.10;99.90;;;;;;4950146;28;20346;-73
2023/10/25 12:10:04;;;;;;;4.57;4.10;;;11.10;99.90;;;;;;4897721;28;20451;-72
2023/10/25 12:12:31;;;;;;;4.10;3.67;;;11.10;99.90;;;;;;4935508;28;20471;-73
2023/10/25 12:14:57;;;;;;;4.03;3.60;;;11.20;99.90;;;;;;4911291;28;20472;-72
2023/10/25 12:17:23;;;;;;;3.93;3.53;;;11.20;99.90;;;;;;4941651;28;20523;-72
2023/10/25 12:19:51;;;;;;;4.83;3.50;;;11.20;99.90;;;;;;4934191;28;20310;-73
2023/10/25 12:22:18;;;;;;;4.20;2.97;;;11.20;99.90;;;;;;4943857;28;20889;-73
2023/10/25 12:24:46;;;;;;;3.87;3.57;;;11.20;99.90;;;;;;4947136;28;21020;-72
2023/10/25 12:27:12;;;;;;;2.73;2.37;;;11.30;99.90;;;;;;4936475;28;20475;-72
2023/10/25 12:29:38;;;;;;;3.47;3.17;;;11.30;99.90;;;;;;4939018;28;20465;-73
2023/10/25 12:32:04;;;;;;;3.07;2.83;;;11.30;99.90;;;;;;4934430;28;20820;-72
2023/10/25 12:34:30;;;;;;;3.00;2.70;;;11.30;99.90;;;;;;4931801;28;20473;-72
2023/10/25 12:36:56;;;;;;;3.00;2.63;;;11.40;99.90;;;;;;4931802;28;20527;-72
2023/10/25 12:39:22;;;;;;;2.47;2.27;;;11.40;99.90;;;;;;4951629;28;20477;-72
2023/10/25 12:41:48;;;;;;;2.83;2.63;;;11.40;99.90;;;;;;4932622;28;20499;-73
2023/10/25 12:44:14;;;;;;;2.90;2.70;;;11.50;99.90;;;;;;4917627;28;20226;-73
2023/10/25 12:46:41;;;;;;;3.53;2.93;;;11.50;99.90;;;;;;4918359;28;20485;-73
2023/10/25 12:49:08;;;;;;;4.00;3.60;;;11.50;99.90;;;;;;4930734;28;20384;-73
2023/10/25 12:51:35;;;;;;;3.53;3.20;;;11.50;99.90;;;;;;4936891;28;20468;-73